sensor_id;sensor_type;location;lat;lon;timestamp;P1;durP1;ratioP1;P2;durP2;ratioP2
27622;SDS011;15041;45.334;5.622;2024-01-16T00:00:58;5.60;;;5.10;;
27622;SDS011;15041;45.334;5.622;2024-01-16T00:03:25;5.43;;;4.93;;
27622;SDS011;15041;45.334;5.622;2024-01-16T00:05:54;5.80;;;5.30;;
27622;SDS011;15041;45.334;5.622;2024-01-16T00:08:21;5.47;;;4.97;;
27622;SDS011;15041;45.334;5.622;2024-01-16T00:10:48;4.93;;;4.53;;
27622;SDS011;15041;45.334;5.622;2024-01-16T00:13:16;6.07;;;5.03;;
27622;SDS011;15041;45.334;5.622;2024-01-16T00:15:43;5.90;;;5.30;;
27622;SDS011;15041;45.334;5.622;2024-01-16T00:18:11;6.20;;;5.60;;
27622;SDS011;15041;45.334;5.622;2024-01-16T00:20:38;5.67;;;4.93;;
27622;SDS011;15041;45.334;5.622;2024-01-16T00:23:06;6.07;;;5.13;;
27622;SDS011;15041;45.334;5.622;2024-01-16T00:25:34;5.53;;;4.77;;
27622;SDS011;15041;45.334;5.622;2024-01-16T00:28:01;5.80;;;5.20;;
27622;SDS011;15041;45.334;5.622;2024-01-16T00:30:29;6.67;;;5.60;;
27622;SDS011;15041;45.334;5.622;2024-01-16T00:32:57;6.33;;;5.37;;
27622;SDS011;15041;45.334;5.622;2024-01-16T00:35:24;5.83;;;5.33;;
27622;SDS011;15041;45.334;5.622;2024-01-16T00:37:52;5.67;;;5.10;;
27622;SDS011;15041;45.334;5.622;2024-01-16T00:40:21;5.93;;;5.30;;
27622;SDS011;15041;45.334;5.622;2024-01-16T00:42:48;5.57;;;5.03;;
27622;SDS011;15041;45.334;5.622;2024-01-16T00:45:16;5.30;;;4.80;;
27622;SDS011;15041;45.334;5.622;2024-01-16T00:47:44;4.90;;;4.40;;
27622;SDS011;15041;45.334;5.622;2024-01-16T00:50:11;5.80;;;5.30;;
27622;SDS011;15041;45.334;5.622;2024-01-16T00:52:38;6.07;;;5.47;;
27622;SDS011;15041;45.334;5.622;2024-01-16T00:55:06;5.97;;;5.37;;
27622;SDS011;15041;45.334;5.622;2024-01-16T00:57:35;5.70;;;5.20;;
27622;SDS011;15041;45.334;5.622;2024-01-16T01:00:02;5.57;;;5.07;;
27622;SDS011;15041;45.334;5.622;2024-01-16T01:02:30;5.93;;;5.07;;
27622;SDS011;15041;45.334;5.622;2024-01-16T01:04:57;6.23;;;5.63;;
27622;SDS011;15041;45.334;5.622;2024-01-16T01:07:24;5.57;;;5.07;;
27622;SDS011;15041;45.334;5.622;2024-01-16T01:09:52;5.60;;;5.10;;
27622;SDS011;15041;45.334;5.622;2024-01-16T01:12:19;7.73;;;5.30;;
27622;SDS011;15041;45.334;5.622;2024-01-16T01:14:48;8.33;;;5.13;;
27622;SDS011;15041;45.334;5.622;2024-01-16T01:17:15;5.00;;;4.50;;
27622;SDS011;15041;45.334;5.622;2024-01-16T01:22:26;5.53;;;5.00;;
27622;SDS011;15041;45.334;5.622;2024-01-16T01:24:53;5.83;;;5.33;;
27622;SDS011;15041;45.334;5.622;2024-01-16T01:27:20;5.63;;;5.13;;
27622;SDS011;15041;45.334;5.622;2024-01-16T01:29:49;6.07;;;5.47;;
27622;SDS011;15041;45.334;5.622;2024-01-16T01:32:16;5.70;;;5.20;;
27622;SDS011;15041;45.334;5.622;2024-01-16T01:34:44;5.40;;;4.90;;
27622;SDS011;15041;45.334;5.622;2024-01-16T01:37:11;5.83;;;5.23;;
27622;SDS011;15041;45.334;5.622;2024-01-16T01:39:39;5.70;;;5.20;;
27622;SDS011;15041;45.334;5.622;2024-01-16T01:42:07;6.20;;;5.60;;
27622;SDS011;15041;45.334;5.622;2024-01-16T01:44:34;7.13;;;5.90;;
27622;SDS011;15041;45.334;5.622;2024-01-16T01:47:02;6.73;;;6.13;;
27622;SDS011;15041;45.334;5.622;2024-01-16T01:49:31;7.43;;;6.03;;
27622;SDS011;15041;45.334;5.622;2024-01-16T01:51:58;6.40;;;5.73;;
27622;SDS011;15041;45.334;5.622;2024-01-16T01:54:25;6.97;;;5.80;;
27622;SDS011;15041;45.334;5.622;2024-01-16T01:56:54;6.47;;;5.87;;
27622;SDS011;15041;45.334;5.622;2024-01-16T01:59:21;6.63;;;5.83;;
27622;SDS011;15041;45.334;5.622;2024-01-16T02:01:51;6.30;;;5.70;;
27622;SDS011;15041;45.334;5.622;2024-01-16T02:04:21;7.17;;;6.33;;
27622;SDS011;15041;45.334;5.622;2024-01-16T02:06:48;5.67;;;5.13;;
27622;SDS011;15041;45.334;5.622;2024-01-16T02:09:16;6.60;;;6.00;;
27622;SDS011;15041;45.334;5.622;2024-01-16T02:11:43;6.90;;;5.70;;
27622;SDS011;15041;45.334;5.622;2024-01-16T02:14:10;6.07;;;5.47;;
27622;SDS011;15041;45.334;5.622;2024-01-16T02:16:38;6.27;;;5.67;;
27622;SDS011;15041;45.334;5.622;2024-01-16T02:19:07;6.87;;;6.17;;
27622;SDS011;15041;45.334;5.622;2024-01-16T02:21:36;6.77;;;6.00;;
27622;SDS011;15041;45.334;5.622;2024-01-16T02:24:07;6.70;;;6.10;;
27622;SDS011;15041;45.334;5.622;2024-01-16T02:26:37;6.30;;;5.63;;
27622;SDS011;15041;45.334;5.622;2024-01-16T02:29:04;6.87;;;6.03;;
27622;SDS011;15041;45.334;5.622;2024-01-16T02:31:32;5.97;;;5.37;;
27622;SDS011;15041;45.334;5.622;2024-01-16T02:33:59;6.80;;;5.83;;
27622;SDS011;15041;45.334;5.622;2024-01-16T02:36:27;5.70;;;5.20;;
27622;SDS011;15041;45.334;5.622;2024-01-16T02:38:55;6.30;;;5.70;;
27622;SDS011;15041;45.334;5.622;2024-01-16T02:41:24;6.20;;;5.57;;
27622;SDS011;15041;45.334;5.622;2024-01-16T02:43:51;6.90;;;6.20;;
27622;SDS011;15041;45.334;5.622;2024-01-16T02:46:18;7.27;;;6.27;;
27622;SDS011;15041;45.334;5.622;2024-01-16T02:48:46;6.70;;;6.00;;
27622;SDS011;15041;45.334;5.622;2024-01-16T02:51:14;7.30;;;6.10;;
27622;SDS011;15041;45.334;5.622;2024-01-16T02:53:41;7.07;;;6.30;;
27622;SDS011;15041;45.334;5.622;2024-01-16T02:56:08;7.60;;;6.47;;
27622;SDS011;15041;45.334;5.622;2024-01-16T02:58:37;7.33;;;6.63;;
27622;SDS011;15041;45.334;5.622;2024-01-16T03:01:04;7.47;;;6.67;;
27622;SDS011;15041;45.334;5.622;2024-01-16T03:03:31;6.83;;;6.13;;
27622;SDS011;15041;45.334;5.622;2024-01-16T03:05:58;8.30;;;7.37;;
27622;SDS011;15041;45.334;5.622;2024-01-16T03:08:26;10.40;;;6.80;;
27622;SDS011;15041;45.334;5.622;2024-01-16T03:10:53;7.10;;;6.40;;
27622;SDS011;15041;45.334;5.622;2024-01-16T03:13:20;6.43;;;5.83;;
27622;SDS011;15041;45.334;5.622;2024-01-16T03:15:50;6.70;;;5.97;;
27622;SDS011;15041;45.334;5.622;2024-01-16T03:18:17;8.23;;;7.30;;
27622;SDS011;15041;45.334;5.622;2024-01-16T03:20:44;9.27;;;7.30;;
27622;SDS011;15041;45.334;5.622;2024-01-16T03:23:12;7.43;;;6.63;;
27622;SDS011;15041;45.334;5.622;2024-01-16T03:25:39;9.23;;;6.90;;
27622;SDS011;15041;45.334;5.622;2024-01-16T03:28:06;8.20;;;7.00;;
27622;SDS011;15041;45.334;5.622;2024-01-16T03:30:35;10.43;;;8.00;;
27622;SDS011;15041;45.334;5.622;2024-01-16T03:33:04;9.60;;;7.73;;
27622;SDS011;15041;45.334;5.622;2024-01-16T03:35:32;10.43;;;6.90;;
27622;SDS011;15041;45.334;5.622;2024-01-16T03:37:59;8.20;;;7.40;;
27622;SDS011;15041;45.334;5.622;2024-01-16T03:40:26;8.80;;;7.13;;
27622;SDS011;15041;45.334;5.622;2024-01-16T03:42:59;8.53;;;7.10;;
27622;SDS011;15041;45.334;5.622;2024-01-16T03:45:26;7.80;;;6.77;;
27622;SDS011;15041;45.334;5.622;2024-01-16T03:47:53;7.57;;;6.77;;
27622;SDS011;15041;45.334;5.622;2024-01-16T03:50:22;8.40;;;7.47;;
27622;SDS011;15041;45.334;5.622;2024-01-16T03:52:49;10.03;;;8.27;;
27622;SDS011;15041;45.334;5.622;2024-01-16T03:55:17;13.53;;;11.20;;
27622;SDS011;15041;45.334;5.622;2024-01-16T03:57:44;10.07;;;8.20;;
27622;SDS011;15041;45.334;5.622;2024-01-16T04:00:12;10.67;;;8.40;;
27622;SDS011;15041;45.334;5.622;2024-01-16T04:02:39;15.27;;;11.27;;
27622;SDS011;15041;45.334;5.622;2024-01-16T04:05:07;13.80;;;9.43;;
27622;SDS011;15041;45.334;5.622;2024-01-16T04:07:36;11.70;;;8.20;;
27622;SDS011;15041;45.334;5.622;2024-01-16T04:10:03;12.93;;;10.37;;
27622;SDS011;15041;45.334;5.622;2024-01-16T04:12:32;11.00;;;9.40;;
27622;SDS011;15041;45.334;5.622;2024-01-16T04:15:00;11.73;;;9.37;;
27622;SDS011;15041;45.334;5.622;2024-01-16T04:17:28;10.43;;;8.83;;
27622;SDS011;15041;45.334;5.622;2024-01-16T04:19:56;8.43;;;7.30;;
27622;SDS011;15041;45.334;5.622;2024-01-16T04:22:23;9.23;;;7.50;;
27622;SDS011;15041;45.334;5.622;2024-01-16T04:24:52;6.67;;;5.97;;
27622;SDS011;15041;45.334;5.622;2024-01-16T04:27:19;7.00;;;6.30;;
27622;SDS011;15041;45.334;5.622;2024-01-16T04:29:46;6.43;;;5.83;;
27622;SDS011;15041;45.334;5.622;2024-01-16T04:32:13;6.97;;;5.57;;
27622;SDS011;15041;45.334;5.622;2024-01-16T04:34:41;5.93;;;5.43;;
27622;SDS011;15041;45.334;5.622;2024-01-16T04:37:08;6.03;;;5.43;;
27622;SDS011;15041;45.334;5.622;2024-01-16T04:39:35;7.07;;;6.30;;
27622;SDS011;15041;45.334;5.622;2024-01-16T04:42:06;7.10;;;6.33;;
27622;SDS011;15041;45.334;5.622;2024-01-16T04:44:33;6.63;;;6.03;;
27622;SDS011;15041;45.334;5.622;2024-01-16T04:47:00;6.60;;;6.00;;
27622;SDS011;15041;45.334;5.622;2024-01-16T04:49:27;9.53;;;6.93;;
27622;SDS011;15041;45.334;5.622;2024-01-16T04:51:54;9.17;;;6.73;;
27622;SDS011;15041;45.334;5.622;2024-01-16T04:54:22;7.73;;;6.70;;
27622;SDS011;15041;45.334;5.622;2024-01-16T04:56:49;10.40;;;8.30;;
27622;SDS011;15041;45.334;5.622;2024-01-16T04:59:18;13.30;;;8.87;;
27622;SDS011;15041;45.334;5.622;2024-01-16T05:01:45;10.90;;;8.40;;
27622;SDS011;15041;45.334;5.622;2024-01-16T05:04:13;8.27;;;7.17;;
27622;SDS011;15041;45.334;5.622;2024-01-16T05:06:40;7.87;;;6.20;;
27622;SDS011;15041;45.334;5.622;2024-01-16T05:09:07;6.80;;;5.87;;
27622;SDS011;15041;45.334;5.622;2024-01-16T05:11:35;9.20;;;7.07;;
27622;SDS011;15041;45.334;5.622;2024-01-16T05:14:02;8.10;;;7.00;;
27622;SDS011;15041;45.334;5.622;2024-01-16T05:16:32;8.23;;;7.07;;
27622;SDS011;15041;45.334;5.622;2024-01-16T05:18:59;10.37;;;8.30;;
27622;SDS011;15041;45.334;5.622;2024-01-16T05:21:26;9.70;;;8.03;;
27622;SDS011;15041;45.334;5.622;2024-01-16T05:23:53;9.30;;;7.63;;
27622;SDS011;15041;45.334;5.622;2024-01-16T05:26:21;8.83;;;7.87;;
27622;SDS011;15041;45.334;5.622;2024-01-16T05:28:51;8.97;;;7.43;;
27622;SDS011;15041;45.334;5.622;2024-01-16T05:31:19;10.13;;;7.50;;
27622;SDS011;15041;45.334;5.622;2024-01-16T05:33:48;9.13;;;8.07;;
27622;SDS011;15041;45.334;5.622;2024-01-16T05:36:15;9.50;;;7.87;;
27622;SDS011;15041;45.334;5.622;2024-01-16T05:38:42;11.03;;;8.00;;
27622;SDS011;15041;45.334;5.622;2024-01-16T05:41:10;9.70;;;7.83;;
27622;SDS011;15041;45.334;5.622;2024-01-16T05:43:38;9.30;;;8.03;;
27622;SDS011;15041;45.334;5.622;2024-01-16T05:46:05;10.07;;;8.43;;
27622;SDS011;15041;45.334;5.622;2024-01-16T05:48:32;9.33;;;7.97;;
27622;SDS011;15041;45.334;5.622;2024-01-16T05:51:01;9.77;;;8.23;;
27622;SDS011;15041;45.334;5.622;2024-01-16T05:53:29;9.67;;;8.30;;
27622;SDS011;15041;45.334;5.622;2024-01-16T05:55:57;9.07;;;7.90;;
27622;SDS011;15041;45.334;5.622;2024-01-16T05:58:24;11.73;;;9.33;;
27622;SDS011;15041;45.334;5.622;2024-01-16T06:00:51;9.67;;;7.70;;
27622;SDS011;15041;45.334;5.622;2024-01-16T06:03:19;9.73;;;8.03;;
27622;SDS011;15041;45.334;5.622;2024-01-16T06:05:46;11.33;;;9.77;;
27622;SDS011;15041;45.334;5.622;2024-01-16T06:08:15;10.30;;;8.90;;
27622;SDS011;15041;45.334;5.622;2024-01-16T06:10:42;9.20;;;8.07;;
27622;SDS011;15041;45.334;5.622;2024-01-16T06:13:10;10.63;;;8.90;;
27622;SDS011;15041;45.334;5.622;2024-01-16T06:15:37;10.27;;;8.53;;
27622;SDS011;15041;45.334;5.622;2024-01-16T06:18:04;10.60;;;8.70;;
27622;SDS011;15041;45.334;5.622;2024-01-16T06:20:31;10.30;;;8.57;;
27622;SDS011;15041;45.334;5.622;2024-01-16T06:22:59;11.53;;;8.87;;
27622;SDS011;15041;45.334;5.622;2024-01-16T06:25:27;10.30;;;8.93;;
27622;SDS011;15041;45.334;5.622;2024-01-16T06:27:54;12.05;;;10.75;;
27622;SDS011;15041;45.334;5.622;2024-01-16T06:30:22;12.47;;;10.20;;
27622;SDS011;15041;45.334;5.622;2024-01-16T06:32:49;13.40;;;10.77;;
27622;SDS011;15041;45.334;5.622;2024-01-16T06:35:16;11.00;;;8.93;;
27622;SDS011;15041;45.334;5.622;2024-01-16T06:37:43;13.27;;;10.80;;
27622;SDS011;15041;45.334;5.622;2024-01-16T06:40:11;11.67;;;8.80;;
27622;SDS011;15041;45.334;5.622;2024-01-16T06:42:39;11.20;;;9.43;;
27622;SDS011;15041;45.334;5.622;2024-01-16T06:45:07;13.70;;;9.27;;
27622;SDS011;15041;45.334;5.622;2024-01-16T06:47:34;11.70;;;9.87;;
27622;SDS011;15041;45.334;5.622;2024-01-16T06:50:01;13.17;;;10.70;;
27622;SDS011;15041;45.334;5.622;2024-01-16T06:52:29;11.67;;;9.60;;
27622;SDS011;15041;45.334;5.622;2024-01-16T06:54:56;11.97;;;9.53;;
27622;SDS011;15041;45.334;5.622;2024-01-16T06:57:23;12.13;;;10.07;;
27622;SDS011;15041;45.334;5.622;2024-01-16T06:59:52;13.00;;;10.23;;
27622;SDS011;15041;45.334;5.622;2024-01-16T07:02:19;14.07;;;11.47;;
27622;SDS011;15041;45.334;5.622;2024-01-16T07:04:47;13.87;;;10.40;;
27622;SDS011;15041;45.334;5.622;2024-01-16T07:07:14;13.80;;;10.43;;
27622;SDS011;15041;45.334;5.622;2024-01-16T07:09:42;15.93;;;10.87;;
27622;SDS011;15041;45.334;5.622;2024-01-16T07:12:09;12.80;;;9.73;;
27622;SDS011;15041;45.334;5.622;2024-01-16T07:14:36;11.27;;;9.27;;
27622;SDS011;15041;45.334;5.622;2024-01-16T07:17:06;12.27;;;8.97;;
27622;SDS011;15041;45.334;5.622;2024-01-16T07:19:34;11.37;;;8.83;;
27622;SDS011;15041;45.334;5.622;2024-01-16T07:22:01;11.67;;;9.23;;
27622;SDS011;15041;45.334;5.622;2024-01-16T07:24:28;11.13;;;9.03;;
27622;SDS011;15041;45.334;5.622;2024-01-16T07:26:55;12.80;;;10.77;;
27622;SDS011;15041;45.334;5.622;2024-01-16T07:29:22;12.37;;;10.33;;
27622;SDS011;15041;45.334;5.622;2024-01-16T07:31:49;12.50;;;10.37;;
27622;SDS011;15041;45.334;5.622;2024-01-16T07:34:19;14.50;;;10.53;;
27622;SDS011;15041;45.334;5.622;2024-01-16T07:36:47;14.03;;;9.77;;
27622;SDS011;15041;45.334;5.622;2024-01-16T07:39:14;14.23;;;10.47;;
27622;SDS011;15041;45.334;5.622;2024-01-16T07:41:42;12.50;;;9.53;;
27622;SDS011;15041;45.334;5.622;2024-01-16T07:44:09;12.83;;;10.47;;
27622;SDS011;15041;45.334;5.622;2024-01-16T07:46:36;14.93;;;10.63;;
27622;SDS011;15041;45.334;5.622;2024-01-16T07:49:03;14.40;;;10.53;;
27622;SDS011;15041;45.334;5.622;2024-01-16T07:51:32;13.40;;;10.60;;
27622;SDS011;15041;45.334;5.622;2024-01-16T07:54:07;14.53;;;10.40;;
27622;SDS011;15041;45.334;5.622;2024-01-16T07:56:36;15.10;;;11.10;;
27622;SDS011;15041;45.334;5.622;2024-01-16T07:59:04;14.57;;;10.53;;
27622;SDS011;15041;45.334;5.622;2024-01-16T08:01:31;16.50;;;11.53;;
27622;SDS011;15041;45.334;5.622;2024-01-16T08:03:58;16.20;;;10.97;;
27622;SDS011;15041;45.334;5.622;2024-01-16T08:06:26;16.13;;;11.90;;
27622;SDS011;15041;45.334;5.622;2024-01-16T08:08:55;15.10;;;11.13;;
27622;SDS011;15041;45.334;5.622;2024-01-16T08:11:22;15.40;;;11.93;;
27622;SDS011;15041;45.334;5.622;2024-01-16T08:13:50;18.43;;;12.20;;
27622;SDS011;15041;45.334;5.622;2024-01-16T08:16:17;16.53;;;11.33;;
27622;SDS011;15041;45.334;5.622;2024-01-16T08:18:44;17.03;;;11.97;;
27622;SDS011;15041;45.334;5.622;2024-01-16T08:21:11;20.30;;;11.77;;
27622;SDS011;15041;45.334;5.622;2024-01-16T08:23:39;13.97;;;10.87;;
27622;SDS011;15041;45.334;5.622;2024-01-16T08:26:08;14.50;;;10.97;;
27622;SDS011;15041;45.334;5.622;2024-01-16T08:28:35;14.23;;;11.07;;
27622;SDS011;15041;45.334;5.622;2024-01-16T08:31:02;16.50;;;12.03;;
27622;SDS011;15041;45.334;5.622;2024-01-16T08:33:30;14.83;;;10.70;;
27622;SDS011;15041;45.334;5.622;2024-01-16T08:35:58;15.63;;;10.60;;
27622;SDS011;15041;45.334;5.622;2024-01-16T08:38:25;15.07;;;12.17;;
27622;SDS011;15041;45.334;5.622;2024-01-16T08:40:53;15.83;;;11.93;;
27622;SDS011;15041;45.334;5.622;2024-01-16T08:43:21;15.60;;;10.90;;
27622;SDS011;15041;45.334;5.622;2024-01-16T08:45:48;14.87;;;11.90;;
27622;SDS011;15041;45.334;5.622;2024-01-16T08:48:16;17.30;;;12.67;;
27622;SDS011;15041;45.334;5.622;2024-01-16T08:50:43;15.17;;;11.07;;
27622;SDS011;15041;45.334;5.622;2024-01-16T08:53:10;13.13;;;10.73;;
27622;SDS011;15041;45.334;5.622;2024-01-16T08:55:38;13.57;;;10.73;;
27622;SDS011;15041;45.334;5.622;2024-01-16T08:58:05;16.47;;;12.10;;
27622;SDS011;15041;45.334;5.622;2024-01-16T09:00:34;19.83;;;11.73;;
27622;SDS011;15041;45.334;5.622;2024-01-16T09:03:03;16.13;;;11.10;;
27622;SDS011;15041;45.334;5.622;2024-01-16T09:05:30;15.57;;;12.13;;
27622;SDS011;15041;45.334;5.622;2024-01-16T09:08:00;16.33;;;12.00;;
27622;SDS011;15041;45.334;5.622;2024-01-16T09:10:28;16.60;;;12.10;;
27622;SDS011;15041;45.334;5.622;2024-01-16T09:12:55;18.83;;;13.40;;
27622;SDS011;15041;45.334;5.622;2024-01-16T09:15:22;22.17;;;12.23;;
27622;SDS011;15041;45.334;5.622;2024-01-16T09:17:52;15.23;;;12.03;;
27622;SDS011;15041;45.334;5.622;2024-01-16T09:20:19;16.10;;;11.97;;
27622;SDS011;15041;45.334;5.622;2024-01-16T09:22:46;18.23;;;12.30;;
27622;SDS011;15041;45.334;5.622;2024-01-16T09:25:13;16.93;;;12.43;;
27622;SDS011;15041;45.334;5.622;2024-01-16T09:27:42;18.73;;;11.63;;
27622;SDS011;15041;45.334;5.622;2024-01-16T09:30:09;14.60;;;11.90;;
27622;SDS011;15041;45.334;5.622;2024-01-16T09:32:38;15.80;;;12.27;;
27622;SDS011;15041;45.334;5.622;2024-01-16T09:35:07;16.80;;;12.17;;
27622;SDS011;15041;45.334;5.622;2024-01-16T09:37:36;16.80;;;12.97;;
27622;SDS011;15041;45.334;5.622;2024-01-16T09:40:05;16.37;;;12.50;;
27622;SDS011;15041;45.334;5.622;2024-01-16T09:42:33;16.57;;;13.17;;
27622;SDS011;15041;45.334;5.622;2024-01-16T09:45:01;24.13;;;13.30;;
27622;SDS011;15041;45.334;5.622;2024-01-16T09:47:30;15.40;;;12.60;;
27622;SDS011;15041;45.334;5.622;2024-01-16T09:49:58;15.13;;;12.10;;
27622;SDS011;15041;45.334;5.622;2024-01-16T09:52:29;17.10;;;12.37;;
27622;SDS011;15041;45.334;5.622;2024-01-16T09:54:56;17.27;;;13.47;;
27622;SDS011;15041;45.334;5.622;2024-01-16T09:57:24;22.30;;;13.47;;
27622;SDS011;15041;45.334;5.622;2024-01-16T09:59:52;20.47;;;13.70;;
27622;SDS011;15041;45.334;5.622;2024-01-16T10:02:20;19.63;;;14.43;;
27622;SDS011;15041;45.334;5.622;2024-01-16T10:04:50;18.40;;;13.37;;
27622;SDS011;15041;45.334;5.622;2024-01-16T10:07:17;18.37;;;13.00;;
27622;SDS011;15041;45.334;5.622;2024-01-16T10:09:52;23.67;;;13.30;;
27622;SDS011;15041;45.334;5.622;2024-01-16T10:12:22;17.80;;;13.03;;
27622;SDS011;15041;45.334;5.622;2024-01-16T10:14:50;17.60;;;12.70;;
27622;SDS011;15041;45.334;5.622;2024-01-16T10:17:17;20.40;;;14.00;;
27622;SDS011;15041;45.334;5.622;2024-01-16T10:19:49;18.57;;;12.60;;
27622;SDS011;15041;45.334;5.622;2024-01-16T10:22:21;17.97;;;12.70;;
27622;SDS011;15041;45.334;5.622;2024-01-16T10:24:50;16.77;;;12.80;;
27622;SDS011;15041;45.334;5.622;2024-01-16T10:27:30;20.67;;;14.07;;
27622;SDS011;15041;45.334;5.622;2024-01-16T10:29:57;29.33;;;17.60;;
27622;SDS011;15041;45.334;5.622;2024-01-16T10:32:28;20.33;;;13.70;;
27622;SDS011;15041;45.334;5.622;2024-01-16T10:35:06;24.33;;;14.13;;
27622;SDS011;15041;45.334;5.622;2024-01-16T10:37:40;19.37;;;13.33;;
27622;SDS011;15041;45.334;5.622;2024-01-16T10:40:10;15.07;;;12.17;;
27622;SDS011;15041;45.334;5.622;2024-01-16T10:42:40;16.37;;;12.07;;
27622;SDS011;15041;45.334;5.622;2024-01-16T10:45:08;16.80;;;11.17;;
27622;SDS011;15041;45.334;5.622;2024-01-16T10:47:35;23.73;;;14.17;;
27622;SDS011;15041;45.334;5.622;2024-01-16T10:50:03;15.17;;;11.67;;
27622;SDS011;15041;45.334;5.622;2024-01-16T10:52:34;15.83;;;12.33;;
27622;SDS011;15041;45.334;5.622;2024-01-16T10:55:09;15.87;;;12.73;;
27622;SDS011;15041;45.334;5.622;2024-01-16T10:57:39;14.87;;;12.20;;
27622;SDS011;15041;45.334;5.622;2024-01-16T11:00:08;17.63;;;11.73;;
27622;SDS011;15041;45.334;5.622;2024-01-16T11:02:42;13.80;;;11.13;;
27622;SDS011;15041;45.334;5.622;2024-01-16T11:05:17;15.93;;;10.67;;
27622;SDS011;15041;45.334;5.622;2024-01-16T11:07:47;14.97;;;11.17;;
27622;SDS011;15041;45.334;5.622;2024-01-16T11:10:20;18.13;;;11.67;;
27622;SDS011;15041;45.334;5.622;2024-01-16T11:12:50;14.60;;;10.53;;
27622;SDS011;15041;45.334;5.622;2024-01-16T11:15:22;14.90;;;11.70;;
27622;SDS011;15041;45.334;5.622;2024-01-16T11:17:54;15.60;;;11.93;;
27622;SDS011;15041;45.334;5.622;2024-01-16T11:20:23;14.57;;;11.60;;
27622;SDS011;15041;45.334;5.622;2024-01-16T11:22:52;13.53;;;10.40;;
27622;SDS011;15041;45.334;5.622;2024-01-16T11:25:32;17.53;;;9.23;;
27622;SDS011;15041;45.334;5.622;2024-01-16T11:28:07;12.60;;;8.57;;
27622;SDS011;15041;45.334;5.622;2024-01-16T11:30:36;10.03;;;8.73;;
27622;SDS011;15041;45.334;5.622;2024-01-16T11:33:41;10.33;;;8.63;;
27622;SDS011;15041;45.334;5.622;2024-01-16T11:36:46;13.13;;;9.73;;
27622;SDS011;15041;45.334;5.622;2024-01-16T11:39:19;11.87;;;9.33;;
27622;SDS011;15041;45.334;5.622;2024-01-16T11:41:50;10.10;;;8.47;;
27622;SDS011;15041;45.334;5.622;2024-01-16T11:44:41;10.30;;;8.60;;
27622;SDS011;15041;45.334;5.622;2024-01-16T11:47:15;11.13;;;8.83;;
27622;SDS011;15041;45.334;5.622;2024-01-16T11:49:46;17.30;;;9.60;;
27622;SDS011;15041;45.334;5.622;2024-01-16T11:52:14;10.07;;;8.17;;
27622;SDS011;15041;45.334;5.622;2024-01-16T11:54:41;12.40;;;9.00;;
27622;SDS011;15041;45.334;5.622;2024-01-16T12:00:19;15.17;;;11.30;;
27622;SDS011;15041;45.334;5.622;2024-01-16T12:02:51;14.97;;;11.03;;
27622;SDS011;15041;45.334;5.622;2024-01-16T12:05:20;11.83;;;8.83;;
27622;SDS011;15041;45.334;5.622;2024-01-16T12:07:48;10.90;;;8.97;;
27622;SDS011;15041;45.334;5.622;2024-01-16T12:10:16;11.97;;;9.63;;
27622;SDS011;15041;45.334;5.622;2024-01-16T12:12:45;10.80;;;9.20;;
27622;SDS011;15041;45.334;5.622;2024-01-16T12:15:14;11.07;;;8.97;;
27622;SDS011;15041;45.334;5.622;2024-01-16T12:17:56;11.33;;;9.67;;
27622;SDS011;15041;45.334;5.622;2024-01-16T12:20:25;12.17;;;10.70;;
27622;SDS011;15041;45.334;5.622;2024-01-16T12:22:54;13.67;;;9.80;;
27622;SDS011;15041;45.334;5.622;2024-01-16T12:25:23;12.13;;;9.67;;
27622;SDS011;15041;45.334;5.622;2024-01-16T12:27:54;13.80;;;9.50;;
27622;SDS011;15041;45.334;5.622;2024-01-16T12:30:23;12.43;;;9.07;;
27622;SDS011;15041;45.334;5.622;2024-01-16T12:33:04;10.93;;;9.37;;
27622;SDS011;15041;45.334;5.622;2024-01-16T12:35:33;11.67;;;9.50;;
27622;SDS011;15041;45.334;5.622;2024-01-16T12:38:01;12.50;;;9.57;;
27622;SDS011;15041;45.334;5.622;2024-01-16T12:40:31;11.60;;;9.17;;
27622;SDS011;15041;45.334;5.622;2024-01-16T12:42:58;15.53;;;9.77;;
27622;SDS011;15041;45.334;5.622;2024-01-16T12:45:26;13.13;;;9.00;;
27622;SDS011;15041;45.334;5.622;2024-01-16T12:47:54;9.07;;;7.37;;
27622;SDS011;15041;45.334;5.622;2024-01-16T12:50:25;10.90;;;8.67;;
27622;SDS011;15041;45.334;5.622;2024-01-16T12:53:01;10.53;;;8.13;;
27622;SDS011;15041;45.334;5.622;2024-01-16T12:55:29;14.03;;;8.93;;
27622;SDS011;15041;45.334;5.622;2024-01-16T12:58:16;10.17;;;8.63;;
27622;SDS011;15041;45.334;5.622;2024-01-16T13:00:44;9.43;;;7.90;;
27622;SDS011;15041;45.334;5.622;2024-01-16T13:03:15;8.67;;;7.17;;
27622;SDS011;15041;45.334;5.622;2024-01-16T13:05:45;8.30;;;7.37;;
27622;SDS011;15041;45.334;5.622;2024-01-16T13:08:20;10.33;;;8.53;;
27622;SDS011;15041;45.334;5.622;2024-01-16T13:11:01;8.73;;;7.83;;
27622;SDS011;15041;45.334;5.622;2024-01-16T13:13:30;8.80;;;7.27;;
27622;SDS011;15041;45.334;5.622;2024-01-16T13:15:58;11.20;;;8.87;;
27622;SDS011;15041;45.334;5.622;2024-01-16T13:18:26;13.97;;;8.43;;
27622;SDS011;15041;45.334;5.622;2024-01-16T13:20:56;9.97;;;7.97;;
27622;SDS011;15041;45.334;5.622;2024-01-16T13:23:25;10.63;;;6.83;;
27622;SDS011;15041;45.334;5.622;2024-01-16T13:25:53;7.07;;;5.93;;
27622;SDS011;15041;45.334;5.622;2024-01-16T13:28:21;6.97;;;5.97;;
27622;SDS011;15041;45.334;5.622;2024-01-16T13:30:49;7.97;;;6.03;;
27622;SDS011;15041;45.334;5.622;2024-01-16T13:33:17;7.60;;;6.00;;
27622;SDS011;15041;45.334;5.622;2024-01-16T13:35:45;6.10;;;5.27;;
27622;SDS011;15041;45.334;5.622;2024-01-16T13:38:16;7.30;;;6.30;;
27622;SDS011;15041;45.334;5.622;2024-01-16T13:40:44;5.33;;;4.70;;
27622;SDS011;15041;45.334;5.622;2024-01-16T13:43:11;6.27;;;5.30;;
27622;SDS011;15041;45.334;5.622;2024-01-16T13:45:39;6.27;;;5.50;;
27622;SDS011;15041;45.334;5.622;2024-01-16T13:48:06;6.70;;;6.00;;
27622;SDS011;15041;45.334;5.622;2024-01-16T13:50:35;8.57;;;5.50;;
27622;SDS011;15041;45.334;5.622;2024-01-16T13:53:02;7.83;;;4.90;;
27622;SDS011;15041;45.334;5.622;2024-01-16T13:55:31;4.73;;;4.23;;
27622;SDS011;15041;45.334;5.622;2024-01-16T13:57:58;7.37;;;5.30;;
27622;SDS011;15041;45.334;5.622;2024-01-16T14:00:25;5.87;;;5.27;;
27622;SDS011;15041;45.334;5.622;2024-01-16T14:02:52;7.77;;;5.97;;
27622;SDS011;15041;45.334;5.622;2024-01-16T14:05:21;7.50;;;5.67;;
27622;SDS011;15041;45.334;5.622;2024-01-16T14:07:49;8.50;;;6.13;;
27622;SDS011;15041;45.334;5.622;2024-01-16T14:10:17;6.47;;;5.87;;
27622;SDS011;15041;45.334;5.622;2024-01-16T14:12:47;6.20;;;5.23;;
27622;SDS011;15041;45.334;5.622;2024-01-16T14:15:17;7.20;;;5.83;;
27622;SDS011;15041;45.334;5.622;2024-01-16T14:17:49;8.63;;;5.47;;
27622;SDS011;15041;45.334;5.622;2024-01-16T14:20:18;5.60;;;4.90;;
27622;SDS011;15041;45.334;5.622;2024-01-16T14:22:49;6.40;;;4.50;;
27622;SDS011;15041;45.334;5.622;2024-01-16T14:25:17;7.07;;;5.27;;
27622;SDS011;15041;45.334;5.622;2024-01-16T14:27:47;6.30;;;5.33;;
27622;SDS011;15041;45.334;5.622;2024-01-16T14:30:21;7.13;;;6.17;;
27622;SDS011;15041;45.334;5.622;2024-01-16T14:32:50;8.53;;;7.60;;
27622;SDS011;15041;45.334;5.622;2024-01-16T14:35:18;10.63;;;8.80;;
27622;SDS011;15041;45.334;5.622;2024-01-16T14:37:46;12.47;;;8.03;;
27622;SDS011;15041;45.334;5.622;2024-01-16T14:40:14;8.50;;;6.33;;
27622;SDS011;15041;45.334;5.622;2024-01-16T14:42:48;8.70;;;6.70;;
27622;SDS011;15041;45.334;5.622;2024-01-16T14:45:16;14.37;;;9.50;;
27622;SDS011;15041;45.334;5.622;2024-01-16T14:47:44;11.97;;;8.40;;
27622;SDS011;15041;45.334;5.622;2024-01-16T14:50:11;13.97;;;9.03;;